sensor_id;sensor_type;location;lat;lon;timestamp;pressure;altitude;pressure_sealevel;temperature;humidity
12781;BME280;6454;43.304;24.344;2023-03-24T00:02:05;100429.00;;;7.01;92.96
12781;BME280;6454;43.304;24.344;2023-03-24T00:04:32;100426.88;;;7.08;93.03
12781;BME280;6454;43.304;24.344;2023-03-24T00:07:00;100430.72;;;7.12;93.57
12781;BME280;6454;43.304;24.344;2023-03-24T00:09:29;100397.22;;;7.03;93.31
12781;BME280;6454;43.304;24.344;2023-03-24T00:11:57;100426.28;;;7.28;92.81
12781;BME280;6454;43.304;24.344;2023-03-24T00:14:24;100430.31;;;7.25;92.32
12781;BME280;6454;43.304;24.344;2023-03-24T00:16:51;100431.66;;;7.28;91.76
12781;BME280;6454;43.304;24.344;2023-03-24T00:19:19;100428.31;;;7.15;92.82
12781;BME280;6454;43.304;24.344;2023-03-24T00:21:46;100434.56;;;7.21;92.92
12781;BME280;6454;43.304;24.344;2023-03-24T00:24:13;100425.97;;;7.24;92.43
12781;BME280;6454;43.304;24.344;2023-03-24T00:26:41;100423.84;;;7.31;92.22
12781;BME280;6454;43.304;24.344;2023-03-24T00:29:09;100423.31;;;7.29;92.51
12781;BME280;6454;43.304;24.344;2023-03-24T00:31:38;100425.47;;;7.27;92.35
12781;BME280;6454;43.304;24.344;2023-03-24T00:34:05;100428.16;;;7.27;92.31
12781;BME280;6454;43.304;24.344;2023-03-24T00:36:33;100428.66;;;7.24;92.51
12781;BME280;6454;43.304;24.344;2023-03-24T00:39:00;100426.56;;;7.31;91.05
12781;BME280;6454;43.304;24.344;2023-03-24T00:41:28;100417.34;;;7.27;91.24
12781;BME280;6454;43.304;24.344;2023-03-24T00:43:58;100406.56;;;7.27;91.47
12781;BME280;6454;43.304;24.344;2023-03-24T00:46:27;100408.47;;;7.32;90.84
12781;BME280;6454;43.304;24.344;2023-03-24T00:48:56;100411.91;;;7.22;90.61
12781;BME280;6454;43.304;24.344;2023-03-24T00:51:29;100417.78;;;7.14;90.80
12781;BME280;6454;43.304;24.344;2023-03-24T00:53:56;100410.75;;;7.13;90.30
12781;BME280;6454;43.304;24.344;2023-03-24T00:56:25;100412.91;;;7.11;90.14
12781;BME280;6454;43.304;24.344;2023-03-24T00:58:53;100358.66;;;6.76;90.21
12781;BME280;6454;43.304;24.344;2023-03-24T01:01:25;100423.69;;;7.11;89.96
12781;BME280;6454;43.304;24.344;2023-03-24T01:03:54;100429.09;;;7.11;90.03
12781;BME280;6454;43.304;24.344;2023-03-24T01:06:22;100415.44;;;7.23;89.69
12781;BME280;6454;43.304;24.344;2023-03-24T01:08:49;100420.03;;;7.22;89.32
12781;BME280;6454;43.304;24.344;2023-03-24T01:11:19;100424.25;;;7.13;89.64
12781;BME280;6454;43.304;24.344;2023-03-24T01:13:47;100421.53;;;7.13;88.08
12781;BME280;6454;43.304;24.344;2023-03-24T01:16:14;100419.53;;;6.98;87.77
12781;BME280;6454;43.304;24.344;2023-03-24T01:18:42;100415.41;;;6.91;87.47
12781;BME280;6454;43.304;24.344;2023-03-24T01:21:11;100415.91;;;6.83;88.11
12781;BME280;6454;43.304;24.344;2023-03-24T01:23:38;100420.66;;;6.76;88.30
12781;BME280;6454;43.304;24.344;2023-03-24T01:26:08;100391.22;;;6.42;88.66
12781;BME280;6454;43.304;24.344;2023-03-24T01:28:35;100417.84;;;6.66;87.89
12781;BME280;6454;43.304;24.344;2023-03-24T01:31:06;100413.28;;;6.66;88.39
12781;BME280;6454;43.304;24.344;2023-03-24T01:33:34;100412.78;;;6.69;88.87
12781;BME280;6454;43.304;24.344;2023-03-24T01:36:03;100407.34;;;6.64;89.32
12781;BME280;6454;43.304;24.344;2023-03-24T01:38:30;100409.88;;;6.76;90.00
12781;BME280;6454;43.304;24.344;2023-03-24T01:40:58;100406.38;;;6.75;89.39
12781;BME280;6454;43.304;24.344;2023-03-24T01:43:27;100407.72;;;6.73;87.87
12781;BME280;6454;43.304;24.344;2023-03-24T01:46:03;100398.16;;;6.60;88.44
12781;BME280;6454;43.304;24.344;2023-03-24T01:48:35;100397.13;;;6.66;87.82
12781;BME280;6454;43.304;24.344;2023-03-24T01:51:09;100392.28;;;6.41;87.88
12781;BME280;6454;43.304;24.344;2023-03-24T01:53:42;100400.00;;;6.33;88.60
12781;BME280;6454;43.304;24.344;2023-03-24T01:56:10;100416.19;;;6.33;88.66
12781;BME280;6454;43.304;24.344;2023-03-24T01:58:40;100418.09;;;6.37;88.61
12781;BME280;6454;43.304;24.344;2023-03-24T02:01:09;100425.06;;;6.33;88.06
12781;BME280;6454;43.304;24.344;2023-03-24T02:03:37;100416.47;;;6.36;86.98
12781;BME280;6454;43.304;24.344;2023-03-24T02:06:08;100412.41;;;6.34;86.23
12781;BME280;6454;43.304;24.344;2023-03-24T02:08:39;100414.75;;;6.25;86.60
12781;BME280;6454;43.304;24.344;2023-03-24T02:11:07;100423.75;;;6.14;85.75
12781;BME280;6454;43.304;24.344;2023-03-24T02:13:34;100416.03;;;6.01;86.67
12781;BME280;6454;43.304;24.344;2023-03-24T02:16:18;100419.25;;;5.98;87.43
12781;BME280;6454;43.304;24.344;2023-03-24T02:18:58;100408.84;;;5.85;87.44
12781;BME280;6454;43.304;24.344;2023-03-24T02:21:50;100409.84;;;5.84;88.00
12781;BME280;6454;43.304;24.344;2023-03-24T02:24:58;100400.16;;;5.83;87.66
12781;BME280;6454;43.304;24.344;2023-03-24T02:27:44;100403.34;;;5.80;86.90
12781;BME280;6454;43.304;24.344;2023-03-24T02:37:06;100397.84;;;5.70;87.76
12781;BME280;6454;43.304;24.344;2023-03-24T02:39:53;100393.44;;;5.64;88.99
12781;BME280;6454;43.304;24.344;2023-03-24T02:42:25;100395.25;;;5.58;89.90
12781;BME280;6454;43.304;24.344;2023-03-24T02:45:05;100394.00;;;5.66;90.08
12781;BME280;6454;43.304;24.344;2023-03-24T02:47:39;100394.56;;;5.68;89.78
12781;BME280;6454;43.304;24.344;2023-03-24T02:50:16;100391.97;;;5.73;89.41
12781;BME280;6454;43.304;24.344;2023-03-24T02:52:47;100384.94;;;5.72;89.91
12781;BME280;6454;43.304;24.344;2023-03-24T02:55:19;100371.97;;;5.69;90.00
12781;BME280;6454;43.304;24.344;2023-03-24T02:57:51;100353.50;;;5.56;89.85
12781;BME280;6454;43.304;24.344;2023-03-24T03:00:25;100385.00;;;5.77;89.36
12781;BME280;6454;43.304;24.344;2023-03-24T03:02:58;100357.63;;;5.63;90.59
12781;BME280;6454;43.304;24.344;2023-03-24T03:05:28;100371.88;;;5.80;91.22
12781;BME280;6454;43.304;24.344;2023-03-24T03:07:59;100359.31;;;5.86;91.67
12781;BME280;6454;43.304;24.344;2023-03-24T03:10:30;100364.19;;;5.89;91.62
12781;BME280;6454;43.304;24.344;2023-03-24T03:13:01;100365.34;;;5.93;91.77
12781;BME280;6454;43.304;24.344;2023-03-24T03:15:34;100362.19;;;6.01;91.60
12781;BME280;6454;43.304;24.344;2023-03-24T03:18:07;100372.94;;;6.01;91.42
12781;BME280;6454;43.304;24.344;2023-03-24T03:20:39;100381.84;;;6.02;91.57
12781;BME280;6454;43.304;24.344;2023-03-24T03:23:16;100382.41;;;6.04;91.51
12781;BME280;6454;43.304;24.344;2023-03-24T03:25:49;100383.09;;;6.16;91.60
12781;BME280;6454;43.304;24.344;2023-03-24T03:28:19;100382.91;;;6.22;91.42
12781;BME280;6454;43.304;24.344;2023-03-24T03:30:52;100386.78;;;6.31;90.65
12781;BME280;6454;43.304;24.344;2023-03-24T03:33:22;100386.59;;;6.16;89.97
12781;BME280;6454;43.304;24.344;2023-03-24T03:35:52;100387.06;;;6.08;89.92
12781;BME280;6454;43.304;24.344;2023-03-24T03:38:23;100381.16;;;6.11;88.74
12781;BME280;6454;43.304;24.344;2023-03-24T03:40:54;100383.22;;;6.04;88.29
12781;BME280;6454;43.304;24.344;2023-03-24T03:43:24;100379.34;;;5.95;88.13
12781;BME280;6454;43.304;24.344;2023-03-24T03:45:52;100385.44;;;5.86;88.65
12781;BME280;6454;43.304;24.344;2023-03-24T03:48:19;100384.19;;;5.76;89.23
12781;BME280;6454;43.304;24.344;2023-03-24T03:50:46;100383.69;;;5.79;89.52
12781;BME280;6454;43.304;24.344;2023-03-24T03:53:16;100357.41;;;5.65;90.08
12781;BME280;6454;43.304;24.344;2023-03-24T03:55:44;100392.00;;;5.95;89.60
12781;BME280;6454;43.304;24.344;2023-03-24T03:58:12;100386.00;;;5.88;89.06
12781;BME280;6454;43.304;24.344;2023-03-24T04:00:40;100386.66;;;5.78;89.04
12781;BME280;6454;43.304;24.344;2023-03-24T04:03:23;100394.31;;;5.69;89.22
12781;BME280;6454;43.304;24.344;2023-03-24T04:05:58;100386.66;;;5.61;90.51
12781;BME280;6454;43.304;24.344;2023-03-24T04:08:36;100386.25;;;5.69;90.27
12781;BME280;6454;43.304;24.344;2023-03-24T04:11:35;100397.28;;;5.68;88.93
12781;BME280;6454;43.304;24.344;2023-03-24T04:14:16;100406.03;;;5.58;88.11
12781;BME280;6454;43.304;24.344;2023-03-24T04:16:53;100409.19;;;5.55;88.79
12781;BME280;6454;43.304;24.344;2023-03-24T04:19:42;100406.50;;;5.55;88.71
12781;BME280;6454;43.304;24.344;2023-03-24T04:22:23;100406.44;;;5.50;88.61
12781;BME280;6454;43.304;24.344;2023-03-24T04:24:53;100409.34;;;5.49;87.80
12781;BME280;6454;43.304;24.344;2023-03-24T04:27:25;100407.25;;;5.51;87.54
12781;BME280;6454;43.304;24.344;2023-03-24T04:30:04;100420.94;;;5.49;86.72
12781;BME280;6454;43.304;24.344;2023-03-24T04:32:38;100378.66;;;5.11;87.26
12781;BME280;6454;43.304;24.344;2023-03-24T04:35:11;100409.53;;;5.42;87.41
12781;BME280;6454;43.304;24.344;2023-03-24T04:37:40;100410.34;;;5.43;87.05
12781;BME280;6454;43.304;24.344;2023-03-24T04:40:09;100415.75;;;5.43;86.07
12781;BME280;6454;43.304;24.344;2023-03-24T04:42:41;100409.94;;;5.34;86.47
12781;BME280;6454;43.304;24.344;2023-03-24T04:45:11;100411.81;;;5.34;87.17
12781;BME280;6454;43.304;24.344;2023-03-24T04:47:42;100401.56;;;5.31;88.56
12781;BME280;6454;43.304;24.344;2023-03-24T04:50:11;100406.53;;;5.22;88.95
12781;BME280;6454;43.304;24.344;2023-03-24T04:52:40;100411.72;;;5.29;89.95
12781;BME280;6454;43.304;24.344;2023-03-24T04:55:30;100420.63;;;5.29;89.25
12781;BME280;6454;43.304;24.344;2023-03-24T04:58:02;100418.84;;;5.35;89.92
12781;BME280;6454;43.304;24.344;2023-03-24T05:00:31;100307.41;;;4.76;90.62
12781;BME280;6454;43.304;24.344;2023-03-24T05:02:57;100424.38;;;5.45;91.21
12781;BME280;6454;43.304;24.344;2023-03-24T05:05:24;100418.41;;;5.59;91.97
12781;BME280;6454;43.304;24.344;2023-03-24T05:07:51;100426.63;;;5.69;92.46
12781;BME280;6454;43.304;24.344;2023-03-24T05:10:19;100428.69;;;5.84;92.68
12781;BME280;6454;43.304;24.344;2023-03-24T05:12:45;100424.63;;;5.98;93.16
12781;BME280;6454;43.304;24.344;2023-03-24T05:15:12;100425.13;;;6.17;93.47
12781;BME280;6454;43.304;24.344;2023-03-24T05:17:40;100332.09;;;5.66;92.75
12781;BME280;6454;43.304;24.344;2023-03-24T05:20:08;100428.34;;;6.35;92.58
12781;BME280;6454;43.304;24.344;2023-03-24T05:22:36;100421.34;;;6.39;91.80
12781;BME280;6454;43.304;24.344;2023-03-24T05:25:04;100424.28;;;6.60;91.19
12781;BME280;6454;43.304;24.344;2023-03-24T05:27:31;100380.38;;;6.37;91.75
12781;BME280;6454;43.304;24.344;2023-03-24T05:29:58;100431.81;;;6.84;91.22
12781;BME280;6454;43.304;24.344;2023-03-24T05:32:25;100433.59;;;7.00;91.31
12781;BME280;6454;43.304;24.344;2023-03-24T05:34:53;100439.69;;;7.18;90.88
12781;BME280;6454;43.304;24.344;2023-03-24T05:37:19;100435.75;;;7.30;90.45
12781;BME280;6454;43.304;24.344;2023-03-24T05:39:46;100437.47;;;7.46;89.36
12781;BME280;6454;43.304;24.344;2023-03-24T05:42:14;100432.66;;;7.53;88.58
12781;BME280;6454;43.304;24.344;2023-03-24T05:44:41;100437.31;;;7.63;88.20
12781;BME280;6454;43.304;24.344;2023-03-24T05:47:08;100442.53;;;7.74;87.39
12781;BME280;6454;43.304;24.344;2023-03-24T05:49:37;100444.19;;;7.86;86.54
12781;BME280;6454;43.304;24.344;2023-03-24T05:52:05;100440.78;;;8.00;86.51
12781;BME280;6454;43.304;24.344;2023-03-24T05:54:33;100430.31;;;8.14;85.69
12781;BME280;6454;43.304;24.344;2023-03-24T05:57:00;100447.44;;;8.29;85.62
12781;BME280;6454;43.304;24.344;2023-03-24T05:59:27;100443.44;;;8.37;85.35
12781;BME280;6454;43.304;24.344;2023-03-24T06:01:54;100447.78;;;8.53;84.93
12781;BME280;6454;43.304;24.344;2023-03-24T06:04:22;100447.28;;;8.66;84.91
12781;BME280;6454;43.304;24.344;2023-03-24T06:06:49;100447.84;;;8.73;85.01
12781;BME280;6454;43.304;24.344;2023-03-24T06:09:17;100452.47;;;8.83;84.88
12781;BME280;6454;43.304;24.344;2023-03-24T06:11:44;100447.88;;;8.88;84.41
12781;BME280;6454;43.304;24.344;2023-03-24T06:14:11;100452.50;;;9.03;84.32
12781;BME280;6454;43.304;24.344;2023-03-24T06:16:38;100417.06;;;8.99;83.91
12781;BME280;6454;43.304;24.344;2023-03-24T06:19:05;100455.53;;;9.27;84.05
12781;BME280;6454;43.304;24.344;2023-03-24T06:21:32;100454.94;;;9.45;83.14
12781;BME280;6454;43.304;24.344;2023-03-24T06:23:59;100451.69;;;9.58;83.25
12781;BME280;6454;43.304;24.344;2023-03-24T06:26:28;100451.97;;;9.71;83.30
12781;BME280;6454;43.304;24.344;2023-03-24T06:28:56;100452.78;;;9.82;83.20
12781;BME280;6454;43.304;24.344;2023-03-24T06:31:23;100454.91;;;9.90;83.09
12781;BME280;6454;43.304;24.344;2023-03-24T06:33:52;100459.22;;;10.01;82.76
12781;BME280;6454;43.304;24.344;2023-03-24T06:36:19;100440.78;;;10.08;82.12
12781;BME280;6454;43.304;24.344;2023-03-24T06:38:47;100454.59;;;10.27;81.95
12781;BME280;6454;43.304;24.344;2023-03-24T06:41:14;100455.56;;;10.46;81.90
12781;BME280;6454;43.304;24.344;2023-03-24T06:43:43;100456.03;;;10.63;81.02
12781;BME280;6454;43.304;24.344;2023-03-24T06:46:09;100455.44;;;10.76;80.02
12781;BME280;6454;43.304;24.344;2023-03-24T06:48:36;100457.47;;;10.94;79.69
12781;BME280;6454;43.304;24.344;2023-03-24T06:51:04;100450.03;;;11.10;78.82
12781;BME280;6454;43.304;24.344;2023-03-24T06:53:31;100466.53;;;11.24;78.21
12781;BME280;6454;43.304;24.344;2023-03-24T06:55:58;100459.03;;;11.39;78.28
12781;BME280;6454;43.304;24.344;2023-03-24T06:58:25;100469.78;;;11.54;77.47
12781;BME280;6454;43.304;24.344;2023-03-24T07:00:53;100464.81;;;11.67;76.84
12781;BME280;6454;43.304;24.344;2023-03-24T07:03:20;100467.16;;;11.78;73.93
12781;BME280;6454;43.304;24.344;2023-03-24T07:05:47;100463.75;;;11.96;72.41
12781;BME280;6454;43.304;24.344;2023-03-24T07:08:14;100467.69;;;12.09;70.98
12781;BME280;6454;43.304;24.344;2023-03-24T07:10:42;100470.75;;;12.26;71.40
12781;BME280;6454;43.304;24.344;2023-03-24T07:13:09;100470.56;;;12.41;71.03
12781;BME280;6454;43.304;24.344;2023-03-24T07:15:36;100467.66;;;12.56;71.28
12781;BME280;6454;43.304;24.344;2023-03-24T07:18:04;100467.16;;;12.73;71.05
12781;BME280;6454;43.304;24.344;2023-03-24T07:20:31;100461.84;;;12.81;70.04
12781;BME280;6454;43.304;24.344;2023-03-24T07:22:58;100466.00;;;12.98;69.97
12781;BME280;6454;43.304;24.344;2023-03-24T07:25:25;100456.00;;;13.12;69.19
12781;BME280;6454;43.304;24.344;2023-03-24T07:27:52;100455.56;;;13.23;69.72
12781;BME280;6454;43.304;24.344;2023-03-24T07:30:20;100463.59;;;13.33;70.31
12781;BME280;6454;43.304;24.344;2023-03-24T07:32:46;100460.09;;;13.46;70.14
12781;BME280;6454;43.304;24.344;2023-03-24T07:35:15;100448.41;;;13.60;70.47
12781;BME280;6454;43.304;24.344;2023-03-24T07:37:43;100456.03;;;13.76;69.84
12781;BME280;6454;43.304;24.344;2023-03-24T07:40:11;100444.84;;;13.91;69.10
12781;BME280;6454;43.304;24.344;2023-03-24T07:42:39;100450.41;;;14.00;69.48
12781;BME280;6454;43.304;24.344;2023-03-24T07:45:07;100444.47;;;14.11;68.53
12781;BME280;6454;43.304;24.344;2023-03-24T07:47:35;100447.50;;;14.23;67.09
12781;BME280;6454;43.304;24.344;2023-03-24T07:50:03;100442.69;;;14.34;66.11
12781;BME280;6454;43.304;24.344;2023-03-24T07:52:35;100400.41;;;14.18;65.24
12781;BME280;6454;43.304;24.344;2023-03-24T07:55:03;100442.47;;;14.58;65.00
12781;BME280;6454;43.304;24.344;2023-03-24T07:57:30;100437.28;;;14.70;64.04
12781;BME280;6454;43.304;24.344;2023-03-24T07:59:59;100428.38;;;14.78;64.74
12781;BME280;6454;43.304;24.344;2023-03-24T08:02:26;100430.66;;;14.98;63.85
12781;BME280;6454;43.304;24.344;2023-03-24T08:04:53;100428.16;;;15.10;64.25
12781;BME280;6454;43.304;24.344;2023-03-24T08:07:20;100428.59;;;15.26;63.33
12781;BME280;6454;43.304;24.344;2023-03-24T08:09:49;100419.72;;;15.42;62.04
12781;BME280;6454;43.304;24.344;2023-03-24T08:12:15;100419.84;;;15.60;61.39
12781;BME280;6454;43.304;24.344;2023-03-24T08:14:42;100431.38;;;15.79;57.53
12781;BME280;6454;43.304;24.344;2023-03-24T08:17:09;100390.47;;;15.65;57.88
12781;BME280;6454;43.304;24.344;2023-03-24T08:19:36;100419.41;;;15.97;57.62
12781;BME280;6454;43.304;24.344;2023-03-24T08:22:03;100419.28;;;16.10;56.96
12781;BME280;6454;43.304;24.344;2023-03-24T08:24:30;100415.31;;;16.25;56.62
12781;BME280;6454;43.304;24.344;2023-03-24T08:26:58;100414.53;;;16.33;57.02
12781;BME280;6454;43.304;24.344;2023-03-24T08:29:27;100415.19;;;16.39;56.02
12781;BME280;6454;43.304;24.344;2023-03-24T08:31:54;100415.38;;;16.42;55.30
12781;BME280;6454;43.304;24.344;2023-03-24T08:34:20;100404.41;;;16.51;55.55
12781;BME280;6454;43.304;24.344;2023-03-24T08:36:49;100409.16;;;16.59;54.98
12781;BME280;6454;43.304;24.344;2023-03-24T08:39:16;100408.03;;;16.60;54.15
12781;BME280;6454;43.304;24.344;2023-03-24T08:41:42;100407.38;;;16.71;53.59
12781;BME280;6454;43.304;24.344;2023-03-24T08:44:12;100393.84;;;16.84;54.57
12781;BME280;6454;43.304;24.344;2023-03-24T08:46:39;100391.44;;;16.91;53.47
12781;BME280;6454;43.304;24.344;2023-03-24T08:49:05;100390.78;;;17.11;54.13
12781;BME280;6454;43.304;24.344;2023-03-24T08:51:33;100379.34;;;17.09;52.69
12781;BME280;6454;43.304;24.344;2023-03-24T08:54:00;100388.03;;;17.28;54.09
12781;BME280;6454;43.304;24.344;2023-03-24T08:56:28;100388.66;;;17.33;52.78
12781;BME280;6454;43.304;24.344;2023-03-24T08:58:55;100384.13;;;17.37;52.08
12781;BME280;6454;43.304;24.344;2023-03-24T09:01:23;100388.00;;;17.45;51.77
12781;BME280;6454;43.304;24.344;2023-03-24T09:03:50;100384.13;;;17.46;51.43
12781;BME280;6454;43.304;24.344;2023-03-24T09:06:17;100375.09;;;17.54;51.56
12781;BME280;6454;43.304;24.344;2023-03-24T09:08:44;100382.66;;;17.66;51.12
12781;BME280;6454;43.304;24.344;2023-03-24T09:11:13;100375.69;;;17.77;51.22
12781;BME280;6454;43.304;24.344;2023-03-24T09:13:41;100371.31;;;17.76;50.44
12781;BME280;6454;43.304;24.344;2023-03-24T09:16:08;100367.09;;;17.78;50.45
12781;BME280;6454;43.304;24.344;2023-03-24T09:18:36;100361.41;;;17.92;51.15
12781;BME280;6454;43.304;24.344;2023-03-24T09:21:04;100368.13;;;18.03;51.40
12781;BME280;6454;43.304;24.344;2023-03-24T09:23:32;100364.88;;;18.10;50.36
12781;BME280;6454;43.304;24.344;2023-03-24T09:25:59;100360.97;;;18.11;50.91
12781;BME280;6454;43.304;24.344;2023-03-24T09:28:27;100338.28;;;18.01;48.33
12781;BME280;6454;43.304;24.344;2023-03-24T09:30:57;100363.44;;;18.33;49.72
12781;BME280;6454;43.304;24.344;2023-03-24T09:33:24;100363.88;;;18.43;50.05
12781;BME280;6454;43.304;24.344;2023-03-24T09:35:56;100340.06;;;18.27;47.97
12781;BME280;6454;43.304;24.344;2023-03-24T09:38:23;100352.38;;;18.50;49.42
12781;BME280;6454;43.304;24.344;2023-03-24T09:40:53;100359.47;;;18.51;49.18
12781;BME280;6454;43.304;24.344;2023-03-24T09:43:25;100354.41;;;18.61;52.71
12781;BME280;6454;43.304;24.344;2023-03-24T09:45:56;100328.44;;;18.50;53.13
12781;BME280;6454;43.304;24.344;2023-03-24T09:48:32;100343.53;;;18.65;52.05
12781;BME280;6454;43.304;24.344;2023-03-24T09:51:04;100345.00;;;18.62;50.08
12781;BME280;6454;43.304;24.344;2023-03-24T09:53:38;100347.69;;;18.71;51.46
12781;BME280;6454;43.304;24.344;2023-03-24T09:56:11;100343.81;;;18.72;50.26
12781;BME280;6454;43.304;24.344;2023-03-24T09:58:39;100342.72;;;18.85;50.66
12781;BME280;6454;43.304;24.344;2023-03-24T10:01:11;100313.19;;;18.61;49.41
12781;BME280;6454;43.304;24.344;2023-03-24T10:03:39;100343.06;;;18.84;47.09
12781;BME280;6454;43.304;24.344;2023-03-24T10:06:10;100337.16;;;18.94;49.64
12781;BME280;6454;43.304;24.344;2023-03-24T10:08:43;100331.03;;;19.09;49.48
12781;BME280;6454;43.304;24.344;2023-03-24T10:11:19;100340.13;;;19.21;46.86
12781;BME280;6454;43.304;24.344;2023-03-24T10:14:01;100330.50;;;19.27;45.10
12781;BME280;6454;43.304;24.344;2023-03-24T10:16:32;100326.72;;;19.32;47.12
12781;BME280;6454;43.304;24.344;2023-03-24T10:19:08;100324.47;;;19.34;48.01
12781;BME280;6454;43.304;24.344;2023-03-24T10:21:53;100327.75;;;19.27;48.54
12781;BME280;6454;43.304;24.344;2023-03-24T10:24:26;100330.28;;;19.33;46.53
12781;BME280;6454;43.304;24.344;2023-03-24T10:27:01;100327.34;;;19.38;46.79
12781;BME280;6454;43.304;24.344;2023-03-24T10:29:33;100324.50;;;19.46;46.30
12781;BME280;6454;43.304;24.344;2023-03-24T10:32:05;100331.16;;;19.57;45.79
12781;BME280;6454;43.304;24.344;2023-03-24T10:34:38;100324.16;;;19.60;43.38
12781;BME280;6454;43.304;24.344;2023-03-24T10:37:11;100321.41;;;19.60;43.59
12781;BME280;6454;43.304;24.344;2023-03-24T10:39:39;100304.13;;;19.71;45.67
12781;BME280;6454;43.304;24.344;2023-03-24T10:42:13;100306.88;;;19.83;45.07
12781;BME280;6454;43.304;24.344;2023-03-24T10:44:41;100309.41;;;19.88;43.02
12781;BME280;6454;43.304;24.344;2023-03-24T10:47:10;100302.50;;;19.94;43.44
12781;BME280;6454;43.304;24.344;2023-03-24T10:49:51;100307.69;;;19.96;43.74
12781;BME280;6454;43.304;24.344;2023-03-24T10:52:19;100302.63;;;19.98;42.02
12781;BME280;6454;43.304;24.344;2023-03-24T10:55:02;100294.81;;;20.00;41.33
12781;BME280;6454;43.304;24.344;2023-03-24T10:57:31;100297.47;;;20.09;41.15
12781;BME280;6454;43.304;24.344;2023-03-24T11:00:00;100295.75;;;20.04;39.86
12781;BME280;6454;43.304;24.344;2023-03-24T11:02:40;100294.00;;;20.00;38.08
12781;BME280;6454;43.304;24.344;2023-03-24T11:05:14;100286.66;;;20.16;40.08
12781;BME280;6454;43.304;24.344;2023-03-24T11:07:44;100282.88;;;20.32;39.75
12781;BME280;6454;43.304;24.344;2023-03-24T11:10:15;100278.28;;;20.36;37.32
12781;BME280;6454;43.304;24.344;2023-03-24T11:12:58;100271.13;;;20.47;36.17
12781;BME280;6454;43.304;24.344;2023-03-24T11:15:28;100271.38;;;20.42;36.25
12781;BME280;6454;43.304;24.344;2023-03-24T11:17:57;100230.16;;;20.22;35.54
12781;BME280;6454;43.304;24.344;2023-03-24T11:20:32;100273.31;;;20.42;33.83
12781;BME280;6454;43.304;24.344;2023-03-24T11:23:05;100245.91;;;20.33;31.67
12781;BME280;6454;43.304;24.344;2023-03-24T11:25:36;100257.09;;;20.52;32.68
12781;BME280;6454;43.304;24.344;2023-03-24T11:28:06;100254.59;;;20.47;29.70
12781;BME280;6454;43.304;24.344;2023-03-24T11:30:42;100251.00;;;20.59;30.90
12781;BME280;6454;43.304;24.344;2023-03-24T11:33:14;100238.91;;;20.64;34.82
12781;BME280;6454;43.304;24.344;2023-03-24T11:35:43;100236.34;;;20.71;34.17
12781;BME280;6454;43.304;24.344;2023-03-24T11:38:15;100231.28;;;20.73;32.91
12781;BME280;6454;43.304;24.344;2023-03-24T11:40:51;100226.91;;;20.72;33.69
12781;BME280;6454;43.304;24.344;2023-03-24T11:43:20;100223.91;;;20.77;33.04
12781;BME280;6454;43.304;24.344;2023-03-24T11:45:52;100219.91;;;20.74;34.45
12781;BME280;6454;43.304;24.344;2023-03-24T11:48:26;100217.69;;;20.80;32.70
12781;BME280;6454;43.304;24.344;2023-03-24T11:50:56;100218.38;;;20.77;32.86
12781;BME280;6454;43.304;24.344;2023-03-24T11:53:28;100215.22;;;20.90;35.02
12781;BME280;6454;43.304;24.344;2023-03-24T11:56:02;100214.78;;;20.88;33.48
12781;BME280;6454;43.304;24.344;2023-03-24T11:58:35;100211.34;;;21.07;35.13
12781;BME280;6454;43.304;24.344;2023-03-24T12:01:08;100217.34;;;20.97;32.57
12781;BME280;6454;43.304;24.344;2023-03-24T12:03:57;100214.59;;;20.97;31.20
12781;BME280;6454;43.304;24.344;2023-03-24T12:06:44;100218.28;;;21.01;32.07
12781;BME280;6454;43.304;24.344;2023-03-24T12:09:21;100207.75;;;20.91;29.80
12781;BME280;6454;43.304;24.344;2023-03-24T12:15:05;100204.47;;;21.01;30.14
12781;BME280;6454;43.304;24.344;2023-03-24T12:17:40;100200.47;;;20.98;30.03
12781;BME280;6454;43.304;24.344;2023-03-24T12:20:15;100192.28;;;21.02;30.42
12781;BME280;6454;43.304;24.344;2023-03-24T12:22:53;100183.88;;;21.10;29.07
12781;BME280;6454;43.304;24.344;2023-03-24T12:25:33;100176.03;;;21.12;27.47
12781;BME280;6454;43.304;24.344;2023-03-24T12:28:15;100175.88;;;21.21;29.96
12781;BME280;6454;43.304;24.344;2023-03-24T12:30:56;100171.22;;;21.25;31.04
12781;BME280;6454;43.304;24.344;2023-03-24T12:33:35;100166.84;;;21.24;29.50
12781;BME280;6454;43.304;24.344;2023-03-24T12:36:26;100164.56;;;21.26;29.08
12781;BME280;6454;43.304;24.344;2023-03-24T12:39:01;100156.28;;;21.26;30.10
12781;BME280;6454;43.304;24.344;2023-03-24T12:42:04;100164.56;;;21.26;29.74
12781;BME280;6454;43.304;24.344;2023-03-24T12:44:56;100155.13;;;21.27;28.93
12781;BME280;6454;43.304;24.344;2023-03-24T12:47:43;100133.41;;;20.79;27.41
12781;BME280;6454;43.304;24.344;2023-03-24T12:50:25;100154.28;;;20.95;29.29
12781;BME280;6454;43.304;24.344;2023-03-24T12:53:20;100135.81;;;20.96;27.72
12781;BME280;6454;43.304;24.344;2023-03-24T12:55:53;100134.81;;;21.04;27.70
12781;BME280;6454;43.304;24.344;2023-03-24T12:58:27;100131.91;;;21.12;30.43
12781;BME280;6454;43.304;24.344;2023-03-24T13:01:03;100128.13;;;21.05;28.25
12781;BME280;6454;43.304;24.344;2023-03-24T13:03:36;100132.16;;;21.07;28.69
12781;BME280;6454;43.304;24.344;2023-03-24T13:06:12;100120.06;;;21.12;29.85
12781;BME280;6454;43.304;24.344;2023-03-24T13:08:46;100126.31;;;21.09;30.24
12781;BME280;6454;43.304;24.344;2023-03-24T13:11:17;100119.19;;;21.08;30.39
12781;BME280;6454;43.304;24.344;2023-03-24T13:13:49;100114.19;;;21.13;29.91
12781;BME280;6454;43.304;24.344;2023-03-24T13:16:20;100109.94;;;21.16;30.08
12781;BME280;6454;43.304;24.344;2023-03-24T13:18:51;100110.81;;;21.20;30.89
12781;BME280;6454;43.304;24.344;2023-03-24T13:21:20;100106.72;;;21.14;29.95
12781;BME280;6454;43.304;24.344;2023-03-24T13:23:50;100102.97;;;21.22;30.32
12781;BME280;6454;43.304;24.344;2023-03-24T13:26:28;100093.16;;;21.25;31.53